Terminal Aerodrome Forecast
Issued by NWS

Home | Current Version | Previous Version | Graphics & Text | Print | Product List | Glossary On
Versions: 1 2 3 4 5 6 7 8 9 10 11 12
000
FTUS43 KICT 272328
TAFSLN
TAF
KSLN 272328Z 2800/2824 VRB05KT P6SM SKC
     FM281000 01007KT P6SM SKC
     FM281500 02012KT P6SM SKC=

USA.gov is the U.S. government's official web portal to all federal, state and local government web resources and services.